Davis Monthan Air Force Base
KDMA : now visible

Airfield :











YOU CAN JOIN US ON...

 
LOGIN :

Register | Disclaimer

   EN    FR    IT 

 









Legend :    VFR   Marginal VFR   IFR   Intensive IFR   Very Intensive IFR
Visi :
Ceiling :
>= 8 km
>= 3000ft
5 to 8 km
1000 to 3000 ft
1500m to 5 km
500 to 1000 ft
800 to 1500m
200 to 500 ft
< 800m
< 200 ft
Symbols :   Thunderstorms  Fog  Heavy snow  Heavy precipitations  Wind > 20 kt






- Airport Elevation : 2704 ft


KDMA - Davis Monthan Air Force Base

CURRENT METAR :
  • 261355Z AUTO 13006KT 10SM CLR 20/M02 A2997 RMK AO2 SLP153 T01991025 $

EXPIRED METARs :
  • 261255Z AUTO 14005KT 10SM CLR 16/M03 A2995 RMK AO2 SLP147 T01551029 $
  • 261155Z AUTO 15008KT 10SM CLR 16/M03 A2993 RMK AO2 SLP139 T01611029 10235 20160 52005 $
  • 261055Z AUTO 13008KT 10SM CLR 17/M02 A2992 RMK AO2 SLP135 T01691022 $
  • 260955Z AUTO 19007KT 10SM CLR 17/M03 A2992 RMK AO2 SLP135 T01701027 $

TAF TAF KDMA
Valid from the 26 at 11:00 until the 27 at 17:00 UTC


261100Z 2611/2717 14006KT 9999 SKC QNH2996INS
BECMG 2618/2619 32009KT 9999 SKC QNH2987INS
BECMG 2705/2706 16009KT 9999 SKC QNH2996INS TX34/2623Z TN11/2613Z
KZAB FIR / North America



MET'MAP, your aeronautical weather chart ! - Copyright ORBIFLY December 2007 - Disclaimer

ORBIFLY MET'MAP TEAM :

Programming & Development : Alexandra Zaïnal
Original concept : Baudouin d'Aumeries
Technical & hardware support : Manuel Goepfert
Assistance : Marc-Olivier Méhu




SOURCES & CREDITS :

   NOAA       Earth
Advisory